createdAt,value
2018-09-30T00:01:52.769Z,7.77
2018-09-30T00:04:21.315Z,7.88
2018-09-30T00:06:49.684Z,7.92
2018-09-30T00:09:18.773Z,7.60
2018-09-30T00:11:47.160Z,7.82
2018-09-30T00:14:15.627Z,7.74
2018-09-30T00:16:44.144Z,7.77
2018-09-30T00:19:12.547Z,7.87
2018-09-30T00:21:40.887Z,7.70
2018-09-30T00:24:14.455Z,7.64
2018-09-30T00:26:48.004Z,7.59
2018-09-30T00:29:16.369Z,7.87
2018-09-30T00:31:44.729Z,7.84
2018-09-30T00:34:18.300Z,8.01
2018-09-30T00:36:46.716Z,7.60
2018-09-30T00:39:15.124Z,7.84
2018-09-30T00:41:43.495Z,7.80
2018-09-30T00:44:11.974Z,7.99
2018-09-30T00:46:40.283Z,8.06
2018-09-30T00:49:08.619Z,8.17
2018-09-30T00:51:36.908Z,8.03
2018-09-30T00:54:05.235Z,7.82
2018-09-30T00:56:33.680Z,8.14
2018-09-30T00:59:02.068Z,8.21
2018-09-30T01:01:30.409Z,8.45
2018-09-30T01:03:58.797Z,8.39
2018-09-30T01:06:27.123Z,8.42
2018-09-30T01:08:55.616Z,8.47
2018-09-30T01:11:23.924Z,8.86
2018-09-30T01:13:52.200Z,8.64
2018-09-30T01:16:20.490Z,8.88
2018-09-30T01:18:48.794Z,8.87
2018-09-30T01:21:17.116Z,9.07
2018-09-30T01:23:45.419Z,9.05
2018-09-30T01:26:13.787Z,8.95
2018-09-30T01:28:42.159Z,8.93
2018-09-30T01:31:10.504Z,9.18
2018-09-30T01:33:38.857Z,9.29
2018-09-30T01:36:07.224Z,8.79
2018-09-30T01:38:35.612Z,9.17
2018-09-30T01:41:04.048Z,9.19
2018-09-30T01:43:32.416Z,9.43
2018-09-30T01:46:00.778Z,9.33
2018-09-30T01:48:29.140Z,9.54
2018-09-30T01:50:57.503Z,9.48
2018-09-30T01:53:25.792Z,9.60
2018-09-30T01:55:54.117Z,9.36
2018-09-30T01:58:22.406Z,9.56
2018-09-30T02:00:50.749Z,9.39
2018-09-30T02:03:19.208Z,9.52
2018-09-30T02:05:47.499Z,9.53
2018-09-30T02:08:15.943Z,9.54
2018-09-30T02:10:44.351Z,9.32
2018-09-30T02:13:12.692Z,9.72
2018-09-30T02:15:41.133Z,9.74
2018-09-30T02:18:09.491Z,9.61
2018-09-30T02:20:37.835Z,9.61
2018-09-30T02:23:06.240Z,9.31
2018-09-30T02:25:34.567Z,9.71
2018-09-30T02:28:02.987Z,9.91
2018-09-30T02:30:31.346Z,9.84
2018-09-30T02:32:59.691Z,9.72
2018-09-30T02:35:28.036Z,9.82
2018-09-30T02:37:56.371Z,9.83
2018-09-30T02:40:24.734Z,9.73
2018-09-30T02:42:53.055Z,9.78
2018-09-30T02:45:21.396Z,9.91
2018-09-30T02:47:49.669Z,9.98
2018-09-30T02:50:17.973Z,9.96
2018-09-30T02:52:46.284Z,9.27
2018-09-30T02:55:14.580Z,9.39
2018-09-30T02:57:42.901Z,9.69
2018-09-30T03:00:29.812Z,10.04
2018-09-30T03:02:58.173Z,10.11
2018-09-30T03:05:26.571Z,10.22
2018-09-30T03:08:00.401Z,10.53
2018-09-30T03:10:28.772Z,10.86
2018-09-30T03:12:57.096Z,10.84
2018-09-30T03:15:25.452Z,10.58
2018-09-30T03:17:53.833Z,10.16
2018-09-30T03:20:22.183Z,9.83
2018-09-30T03:22:50.588Z,10.09
2018-09-30T03:25:18.981Z,10.14
2018-09-30T03:27:47.355Z,10.22
2018-09-30T03:30:15.723Z,10.15
2018-09-30T03:32:44.104Z,10.29
2018-09-30T03:35:12.479Z,10.35
2018-09-30T03:37:40.816Z,10.24
2018-09-30T03:40:09.147Z,10.21
2018-09-30T03:42:37.490Z,10.16
2018-09-30T03:45:05.822Z,10.17
2018-09-30T03:47:34.157Z,10.15
2018-09-30T03:50:02.504Z,9.91
2018-09-30T03:52:30.855Z,10.00
2018-09-30T03:54:59.518Z,9.97
2018-09-30T03:57:27.864Z,9.69
2018-09-30T03:59:56.209Z,9.30
2018-09-30T04:02:24.544Z,9.64
2018-09-30T04:04:52.878Z,9.61
2018-09-30T04:07:21.263Z,9.81
2018-09-30T04:09:49.646Z,9.14
2018-09-30T04:12:17.981Z,9.69
2018-09-30T04:14:46.300Z,9.50
2018-09-30T04:17:14.781Z,9.57
2018-09-30T04:19:43.056Z,9.64
2018-09-30T04:22:11.332Z,9.59
2018-09-30T04:24:39.640Z,9.84
2018-09-30T04:27:07.932Z,9.72
2018-09-30T04:29:36.245Z,9.55
2018-09-30T04:32:04.590Z,9.64
2018-09-30T04:34:32.930Z,9.59
2018-09-30T04:37:01.212Z,9.42
2018-09-30T04:39:29.514Z,9.56
2018-09-30T04:41:57.792Z,9.44
2018-09-30T04:44:26.071Z,9.30
2018-09-30T04:46:54.512Z,9.54
2018-09-30T04:49:22.886Z,9.14
2018-09-30T04:51:51.220Z,9.22
2018-09-30T04:54:19.569Z,9.27
2018-09-30T04:56:47.901Z,9.28
2018-09-30T04:59:16.289Z,9.22
2018-09-30T05:01:44.580Z,9.13
2018-09-30T05:04:12.875Z,9.28
2018-09-30T05:06:41.227Z,9.32
2018-09-30T05:09:09.726Z,8.79
2018-09-30T05:11:38.004Z,9.12
2018-09-30T05:14:06.287Z,9.55
2018-09-30T05:16:34.671Z,9.56
2018-09-30T05:19:02.896Z,9.26
2018-09-30T05:21:31.187Z,9.69
2018-09-30T05:23:59.488Z,9.57
2018-09-30T05:26:27.949Z,9.67
2018-09-30T05:28:56.280Z,9.89
2018-09-30T05:31:24.676Z,9.43
2018-09-30T05:33:53.008Z,9.64
2018-09-30T05:36:21.397Z,9.86
2018-09-30T05:38:49.793Z,9.86
2018-09-30T05:41:18.158Z,9.91
2018-09-30T05:43:46.551Z,9.86
2018-09-30T05:46:14.903Z,9.93
2018-09-30T05:48:43.241Z,9.98
2018-09-30T05:51:11.579Z,10.03
2018-09-30T05:53:39.908Z,9.81
2018-09-30T05:56:08.235Z,9.89
2018-09-30T05:58:36.570Z,10.35
2018-09-30T06:01:04.909Z,10.36
2018-09-30T06:03:33.261Z,10.50
2018-09-30T06:06:01.569Z,10.61
2018-09-30T06:08:30.072Z,10.53
2018-09-30T06:10:58.376Z,10.51
2018-09-30T06:13:26.720Z,10.54
2018-09-30T06:15:55.045Z,10.48
2018-09-30T06:18:23.424Z,10.86
2018-09-30T06:20:51.808Z,10.97
2018-09-30T06:23:20.232Z,11.30
2018-09-30T06:25:48.575Z,11.77
2018-09-30T06:28:16.948Z,12.21
2018-09-30T06:30:45.299Z,14.38
2018-09-30T06:33:13.661Z,16.89
2018-09-30T06:35:42.095Z,17.61
2018-09-30T06:38:10.436Z,19.89
2018-09-30T06:40:38.776Z,20.97
2018-09-30T06:43:07.157Z,22.14
2018-09-30T06:45:35.584Z,22.89
2018-09-30T06:48:03.828Z,23.53
2018-09-30T06:50:32.611Z,23.69
2018-09-30T06:53:01.052Z,25.04
2018-09-30T06:55:29.347Z,27.07
2018-09-30T06:57:57.704Z,27.61
2018-09-30T07:00:26.032Z,28.23
2018-09-30T07:02:54.411Z,27.90
2018-09-30T07:05:22.844Z,27.10
2018-09-30T07:07:51.222Z,26.48
2018-09-30T07:10:19.544Z,24.63
2018-09-30T07:12:47.846Z,24.33
2018-09-30T07:15:16.185Z,22.51
2018-09-30T07:17:44.475Z,21.55
2018-09-30T07:20:12.809Z,18.76
2018-09-30T07:22:41.245Z,19.31
2018-09-30T07:25:09.456Z,18.61
2018-09-30T07:27:37.751Z,19.09
2018-09-30T07:30:06.164Z,18.94
2018-09-30T07:32:34.508Z,18.24
2018-09-30T07:35:02.857Z,18.43
2018-09-30T07:37:31.139Z,17.92
2018-09-30T07:39:59.480Z,18.13
2018-09-30T07:42:27.767Z,17.81
2018-09-30T07:44:56.072Z,17.49
2018-09-30T07:47:24.368Z,17.35
2018-09-30T07:49:52.719Z,16.52
2018-09-30T07:52:21.007Z,16.26
2018-09-30T07:54:49.312Z,16.15
2018-09-30T07:57:17.631Z,16.83
2018-09-30T07:59:45.960Z,16.06
2018-09-30T08:02:14.337Z,16.51
2018-09-30T08:04:42.668Z,17.08
2018-09-30T08:07:11.008Z,17.06
2018-09-30T08:09:39.380Z,17.33
2018-09-30T08:12:07.704Z,18.09
2018-09-30T08:14:36.018Z,18.56
2018-09-30T08:17:04.387Z,20.10
2018-09-30T08:19:32.684Z,21.58
2018-09-30T08:22:01.048Z,23.38
2018-09-30T08:24:29.443Z,24.33
2018-09-30T08:26:57.757Z,26.69
2018-09-30T08:29:26.085Z,27.77
2018-09-30T08:31:54.437Z,27.55
2018-09-30T08:34:22.769Z,26.81
2018-09-30T08:36:51.095Z,26.22
2018-09-30T08:39:19.457Z,26.01
2018-09-30T08:41:47.775Z,26.18
2018-09-30T08:44:16.175Z,26.53
2018-09-30T08:46:44.566Z,27.08
2018-09-30T08:49:19.453Z,27.33
2018-09-30T08:51:47.734Z,28.99
2018-09-30T08:54:16.073Z,30.48
2018-09-30T08:56:44.420Z,30.38
2018-09-30T08:59:12.780Z,30.12
2018-09-30T09:01:41.131Z,32.52
2018-09-30T09:04:09.480Z,32.19
2018-09-30T09:06:37.825Z,31.36
2018-09-30T09:09:09.373Z,30.86
2018-09-30T09:11:37.719Z,30.50
2018-09-30T09:14:06.116Z,30.45
2018-09-30T09:16:34.463Z,30.07
2018-09-30T09:19:02.791Z,29.63
2018-09-30T09:21:31.121Z,29.50
2018-09-30T09:23:59.448Z,30.24
2018-09-30T09:26:27.769Z,30.85
2018-09-30T09:28:56.107Z,31.74
2018-09-30T09:31:24.487Z,30.32
2018-09-30T09:33:52.823Z,28.71
2018-09-30T09:36:21.184Z,30.44
2018-09-30T09:38:49.532Z,30.15
2018-09-30T09:41:17.908Z,28.57
2018-09-30T09:43:46.332Z,28.47
2018-09-30T09:46:14.684Z,29.66
2018-09-30T09:48:42.999Z,28.15
2018-09-30T09:51:12.353Z,28.99
2018-09-30T09:53:40.664Z,29.02
2018-09-30T09:56:08.975Z,28.91
2018-09-30T09:58:37.332Z,29.50
2018-09-30T10:01:06.194Z,31.47
2018-09-30T10:03:34.488Z,31.78
2018-09-30T10:06:02.809Z,30.83
2018-09-30T10:08:31.121Z,30.73
2018-09-30T10:10:59.512Z,31.17
2018-09-30T10:13:27.940Z,31.02
2018-09-30T10:15:56.413Z,33.78
2018-09-30T10:18:24.952Z,31.06
2018-09-30T10:20:53.393Z,30.14
2018-09-30T10:23:21.861Z,30.66
2018-09-30T10:25:50.378Z,30.48
2018-09-30T10:28:18.839Z,30.82
2018-09-30T10:30:47.252Z,31.26
2018-09-30T10:33:15.744Z,30.65
2018-09-30T10:35:44.151Z,30.96
2018-09-30T10:38:12.603Z,31.53
2018-09-30T10:40:41.075Z,31.50
2018-09-30T10:43:09.481Z,29.76
2018-09-30T10:45:37.866Z,26.81
2018-09-30T10:48:06.510Z,25.84
2018-09-30T10:50:34.899Z,24.29
2018-09-30T10:53:03.276Z,24.09
2018-09-30T10:55:31.648Z,23.09
2018-09-30T10:58:00.089Z,23.34
2018-09-30T11:00:28.539Z,22.54
2018-09-30T11:02:56.924Z,22.17
2018-09-30T11:05:25.416Z,21.96
2018-09-30T11:07:53.835Z,22.76
2018-09-30T11:10:22.449Z,22.12
2018-09-30T11:12:50.848Z,23.05
2018-09-30T11:15:20.061Z,24.25
2018-09-30T11:17:48.494Z,24.86
2018-09-30T11:20:17.072Z,26.38
2018-09-30T11:22:45.568Z,28.24
2018-09-30T11:25:14.281Z,28.81
2018-09-30T11:27:42.700Z,28.81
2018-09-30T11:30:11.137Z,28.78
2018-09-30T11:32:39.523Z,29.29
2018-09-30T11:35:07.937Z,30.46
2018-09-30T11:37:36.380Z,30.63
2018-09-30T11:40:05.220Z,31.30
2018-09-30T11:42:33.715Z,31.45
2018-09-30T11:45:02.181Z,29.80
2018-09-30T11:47:30.589Z,30.93
2018-09-30T11:49:58.987Z,30.69
2018-09-30T11:52:27.450Z,32.71
2018-09-30T11:54:55.881Z,31.70
2018-09-30T11:57:24.352Z,30.33
2018-09-30T11:59:52.768Z,31.59
2018-09-30T12:02:21.173Z,31.01
2018-09-30T12:04:49.573Z,31.65
2018-09-30T12:07:17.997Z,30.93
2018-09-30T12:09:46.433Z,31.46
2018-09-30T12:12:14.950Z,33.09
2018-09-30T12:14:43.390Z,33.10
2018-09-30T12:17:11.920Z,31.75
2018-09-30T12:19:40.382Z,31.02
2018-09-30T12:22:08.845Z,30.39
2018-09-30T12:24:37.376Z,29.63
2018-09-30T12:27:05.854Z,30.80
2018-09-30T12:29:34.384Z,30.79
2018-09-30T12:32:02.790Z,29.99
2018-09-30T12:34:31.165Z,29.62
2018-09-30T12:36:59.664Z,27.54
2018-09-30T12:39:28.237Z,26.78
2018-09-30T12:41:56.631Z,26.82
2018-09-30T12:44:25.124Z,25.92
2018-09-30T12:46:53.553Z,25.74
2018-09-30T12:49:21.941Z,24.76
2018-09-30T12:51:50.372Z,24.64
2018-09-30T12:54:18.860Z,25.03
2018-09-30T12:56:47.292Z,24.96
2018-09-30T12:59:15.761Z,23.73
2018-09-30T13:01:44.209Z,24.33
2018-09-30T13:04:12.725Z,24.63
2018-09-30T13:06:41.140Z,23.97
2018-09-30T13:09:10.228Z,24.17
2018-09-30T13:11:38.807Z,23.83
2018-09-30T13:14:07.508Z,23.03
2018-09-30T13:16:36.021Z,23.72
2018-09-30T13:19:04.464Z,23.39
2018-09-30T13:21:32.937Z,23.53
2018-09-30T13:24:01.404Z,23.61
2018-09-30T13:26:29.851Z,23.89
2018-09-30T13:28:58.349Z,24.01
2018-09-30T13:31:26.755Z,23.39
2018-09-30T13:33:55.300Z,23.33
2018-09-30T13:36:23.720Z,23.19
2018-09-30T13:38:52.119Z,22.90
2018-09-30T13:41:20.645Z,22.61
2018-09-30T13:43:49.127Z,23.29
2018-09-30T13:46:17.679Z,22.62
2018-09-30T13:48:46.032Z,23.39
2018-09-30T13:51:14.629Z,23.11
2018-09-30T13:53:42.983Z,22.86
2018-09-30T13:56:11.452Z,22.76
2018-09-30T13:58:39.802Z,23.07
2018-09-30T14:01:08.284Z,22.79
2018-09-30T14:03:36.664Z,23.38
2018-09-30T14:06:05.092Z,22.63
2018-09-30T14:08:33.460Z,22.53
2018-09-30T14:11:01.904Z,22.45
2018-09-30T14:13:30.280Z,22.24
2018-09-30T14:15:58.801Z,21.62
2018-09-30T14:18:27.289Z,22.60
2018-09-30T14:20:55.784Z,22.23
2018-09-30T14:23:24.185Z,21.61
2018-09-30T14:25:52.515Z,21.52
2018-09-30T14:28:20.929Z,21.85
2018-09-30T14:30:49.539Z,21.66
2018-09-30T14:33:18.002Z,22.34
2018-09-30T14:35:46.735Z,22.55
2018-09-30T14:38:15.397Z,22.25
2018-09-30T14:40:43.988Z,22.06
2018-09-30T14:43:12.470Z,21.89
2018-09-30T14:45:40.969Z,22.24
2018-09-30T14:48:09.655Z,22.33
2018-09-30T14:50:38.071Z,21.80
2018-09-30T14:53:06.646Z,22.61
2018-09-30T14:55:35.091Z,22.00
2018-09-30T14:58:03.526Z,21.86
2018-09-30T15:00:32.108Z,21.93
2018-09-30T15:03:00.636Z,21.67
2018-09-30T15:05:29.133Z,21.28
2018-09-30T15:07:57.564Z,21.70
2018-09-30T15:10:26.223Z,21.56
2018-09-30T15:12:54.571Z,21.83
2018-09-30T15:15:23.177Z,21.19
2018-09-30T15:17:51.627Z,21.34
2018-09-30T15:20:20.141Z,21.83
2018-09-30T15:22:48.556Z,21.38
2018-09-30T15:25:17.060Z,22.08
2018-09-30T15:27:45.508Z,22.13
2018-09-30T15:30:14.030Z,21.54
2018-09-30T15:32:42.490Z,20.88
2018-09-30T15:35:10.951Z,19.99
2018-09-30T15:37:39.413Z,20.93
2018-09-30T15:40:07.907Z,20.78
2018-09-30T15:42:36.340Z,20.64
2018-09-30T15:45:04.764Z,20.49
2018-09-30T15:47:33.330Z,20.04
2018-09-30T15:50:01.784Z,20.51
2018-09-30T15:52:30.932Z,19.76
2018-09-30T15:54:59.249Z,20.24
2018-09-30T15:57:27.568Z,20.46
2018-09-30T15:59:56.041Z,19.95
2018-09-30T16:02:24.419Z,19.44
2018-09-30T16:04:52.885Z,20.13
2018-09-30T16:07:21.376Z,20.17
2018-09-30T16:09:49.948Z,20.29
2018-09-30T16:12:18.543Z,20.68
2018-09-30T16:14:46.953Z,20.20
2018-09-30T16:17:15.389Z,20.29
2018-09-30T16:19:43.856Z,19.59
2018-09-30T16:22:12.323Z,19.30
2018-09-30T16:24:40.867Z,18.95
2018-09-30T16:27:09.485Z,19.14
2018-09-30T16:29:37.893Z,18.79
2018-09-30T16:32:06.308Z,18.96
2018-09-30T16:34:34.724Z,18.56
2018-09-30T16:37:03.164Z,18.57
2018-09-30T16:39:31.761Z,18.25
2018-09-30T16:42:00.173Z,17.46
2018-09-30T16:44:28.621Z,17.56
2018-09-30T16:46:57.089Z,17.54
2018-09-30T16:49:25.567Z,17.16
2018-09-30T16:51:53.978Z,16.72
2018-09-30T16:54:22.422Z,16.64
2018-09-30T16:56:50.926Z,16.79
2018-09-30T16:59:19.363Z,16.45
2018-09-30T17:01:47.855Z,16.44
2018-09-30T17:04:16.435Z,16.28
2018-09-30T17:06:45.201Z,15.68
2018-09-30T17:09:13.705Z,15.12
2018-09-30T17:11:42.403Z,15.45
2018-09-30T17:14:10.892Z,15.45
2018-09-30T17:17:16.129Z,15.49
2018-09-30T17:19:44.560Z,15.83
2018-09-30T17:22:13.416Z,15.43
2018-09-30T17:24:41.908Z,15.50
2018-09-30T17:27:10.705Z,15.69
2018-09-30T17:29:39.263Z,15.79
2018-09-30T17:32:08.065Z,15.52
2018-09-30T17:34:36.565Z,15.29
2018-09-30T17:37:05.118Z,15.17
2018-09-30T17:39:34.600Z,15.16
2018-09-30T17:42:03.104Z,14.87
2018-09-30T17:44:31.536Z,14.35
2018-09-30T17:46:59.977Z,14.51
2018-09-30T17:49:28.381Z,14.32
2018-09-30T17:51:58.928Z,14.33
2018-09-30T17:54:27.368Z,14.35
2018-09-30T17:56:56.345Z,14.10
2018-09-30T17:59:24.831Z,13.88
2018-09-30T18:01:53.257Z,13.96
2018-09-30T18:04:21.693Z,13.95
2018-09-30T18:06:50.188Z,13.67
2018-09-30T18:09:18.622Z,13.61
2018-09-30T18:11:47.080Z,13.63
2018-09-30T18:14:15.676Z,13.35
2018-09-30T18:16:47.456Z,13.29
2018-09-30T18:19:15.928Z,13.37
2018-09-30T18:21:44.434Z,13.44
2018-09-30T18:24:13.047Z,12.88
2018-09-30T18:26:41.508Z,12.93
2018-09-30T18:29:09.954Z,13.07
2018-09-30T18:31:38.496Z,12.84
2018-09-30T18:34:06.895Z,12.68
2018-09-30T18:36:35.307Z,12.77
2018-09-30T18:39:04.680Z,12.73
2018-09-30T18:41:33.098Z,12.57
2018-09-30T18:44:01.524Z,12.40
2018-09-30T18:46:29.976Z,12.62
2018-09-30T18:48:58.380Z,12.60
2018-09-30T18:51:26.823Z,12.49
2018-09-30T18:53:55.288Z,12.66
2018-09-30T18:56:23.760Z,12.39
2018-09-30T18:58:52.164Z,12.41
2018-09-30T19:01:20.591Z,12.24
2018-09-30T19:03:49.100Z,12.46
2018-09-30T19:06:17.760Z,12.45
2018-09-30T19:08:46.260Z,12.36
2018-09-30T19:11:14.798Z,12.16
2018-09-30T19:13:43.227Z,11.81
2018-09-30T19:16:11.787Z,12.15
2018-09-30T19:18:40.168Z,12.12
2018-09-30T19:21:08.641Z,12.01
2018-09-30T19:23:37.075Z,12.20
2018-09-30T19:26:05.514Z,11.72
2018-09-30T19:28:34.120Z,11.72
2018-09-30T19:31:02.560Z,11.80
2018-09-30T19:33:30.960Z,12.04
2018-09-30T19:35:59.431Z,11.94
2018-09-30T19:38:27.924Z,12.01
2018-09-30T19:40:56.277Z,11.91
2018-09-30T19:43:24.692Z,11.93
2018-09-30T19:45:53.176Z,11.47
2018-09-30T19:48:21.749Z,11.88
2018-09-30T19:50:50.096Z,11.62
2018-09-30T19:53:18.555Z,11.37
2018-09-30T19:55:46.960Z,11.61
2018-09-30T19:58:15.451Z,11.71
2018-09-30T20:00:43.871Z,11.17
2018-09-30T20:03:12.364Z,11.52
2018-09-30T20:05:47.738Z,11.19
2018-09-30T20:08:16.331Z,11.18
2018-09-30T20:10:44.617Z,11.46
2018-09-30T20:13:13.084Z,11.24
2018-09-30T20:15:41.576Z,11.16
2018-09-30T20:18:09.996Z,11.13
2018-09-30T20:20:38.481Z,11.18
2018-09-30T20:23:06.912Z,11.10
2018-09-30T20:25:35.320Z,11.11
2018-09-30T20:28:03.751Z,10.93
2018-09-30T20:30:32.160Z,10.97
2018-09-30T20:33:00.580Z,10.97
2018-09-30T20:35:28.979Z,11.03
2018-09-30T20:37:57.556Z,11.03
2018-09-30T20:40:26.052Z,10.96
2018-09-30T20:42:54.451Z,10.52
2018-09-30T20:45:22.902Z,10.70
2018-09-30T20:47:51.324Z,10.91
2018-09-30T20:50:19.751Z,11.03
2018-09-30T20:52:48.156Z,10.77
2018-09-30T20:55:16.581Z,10.60
2018-09-30T20:57:45.035Z,10.41
2018-09-30T21:00:13.605Z,10.87
2018-09-30T21:02:41.975Z,10.33
2018-09-30T21:05:23.793Z,10.60
2018-09-30T21:07:52.288Z,10.69
2018-09-30T21:10:20.841Z,10.76
2018-09-30T21:12:49.261Z,10.46
2018-09-30T21:15:17.608Z,10.77
2018-09-30T21:17:46.032Z,11.11
2018-09-30T21:20:14.705Z,10.96
2018-09-30T21:22:43.116Z,10.75
2018-09-30T21:25:11.544Z,10.72
2018-09-30T21:27:39.952Z,10.64
2018-09-30T21:30:08.436Z,10.58
2018-09-30T21:32:36.884Z,10.72
2018-09-30T21:35:05.267Z,10.70
2018-09-30T21:37:33.732Z,10.88
2018-09-30T21:40:02.359Z,10.87
2018-09-30T21:42:30.704Z,10.83
2018-09-30T21:44:59.087Z,10.46
2018-09-30T21:47:27.445Z,10.19
2018-09-30T21:49:55.896Z,10.63
2018-09-30T21:52:24.300Z,10.69
2018-09-30T21:54:52.756Z,10.88
2018-09-30T21:57:21.221Z,11.06
2018-09-30T21:59:49.669Z,10.80
2018-09-30T22:02:18.080Z,11.05
2018-09-30T22:04:46.484Z,10.80
2018-09-30T22:07:14.888Z,11.17
2018-09-30T22:09:43.324Z,11.31
2018-09-30T22:12:11.726Z,11.02
2018-09-30T22:14:40.066Z,10.75
2018-09-30T22:17:08.472Z,10.74
2018-09-30T22:19:36.827Z,10.62
2018-09-30T22:22:05.240Z,10.41
2018-09-30T22:24:33.622Z,10.66
2018-09-30T22:27:02.027Z,11.03
2018-09-30T22:29:30.332Z,10.62
2018-09-30T22:31:58.720Z,10.84
2018-09-30T22:34:27.104Z,10.47
2018-09-30T22:36:55.644Z,10.87
2018-09-30T22:39:24.042Z,10.64
2018-09-30T22:41:52.519Z,10.76
2018-09-30T22:44:20.981Z,10.94
2018-09-30T22:46:49.360Z,10.74
2018-09-30T22:49:17.745Z,10.68
2018-09-30T22:51:46.068Z,10.84
2018-09-30T22:54:14.397Z,10.71
2018-09-30T22:56:42.741Z,10.77
2018-09-30T22:59:11.110Z,10.86
2018-09-30T23:01:39.509Z,10.67
2018-09-30T23:04:07.853Z,10.87
2018-09-30T23:06:36.281Z,10.90
2018-09-30T23:09:06.076Z,11.28
2018-09-30T23:11:34.545Z,11.04
2018-09-30T23:14:02.864Z,10.99
2018-09-30T23:16:31.301Z,11.23
2018-09-30T23:18:59.687Z,11.11
2018-09-30T23:21:28.237Z,11.06
2018-09-30T23:23:56.548Z,11.15
2018-09-30T23:26:24.902Z,11.11
2018-09-30T23:28:53.327Z,10.80
2018-09-30T23:31:21.673Z,10.93
2018-09-30T23:33:50.240Z,10.92
2018-09-30T23:36:18.584Z,10.46
2018-09-30T23:38:47.068Z,10.80
2018-09-30T23:41:15.406Z,10.87
2018-09-30T23:43:43.747Z,11.21
2018-09-30T23:46:12.126Z,11.00
2018-09-30T23:48:40.537Z,10.74
2018-09-30T23:51:08.889Z,10.84
2018-09-30T23:56:20.475Z,11.35
2018-09-30T23:58:49.180Z,11.45
